GTRO2: Cimmarron R.,Guthrie, OK

                                SHEF ID:       GTRO2     Cimarron River near Guthrie, OK
STATION TYPE:
Regulating: Stage = 18.00, Flow = 36779

PRECIP STAGE RIV-FLOW BAT-LOAD
in ft cfs volt
Ccp-Rev Ccp-Rev Ccp-Rev Ccp-Rev
(America/Chicago)
04/23 00:00 ---- 5.78 278 12.73
04/23 01:00 ---- 5.78 278 12.73
04/23 02:00 ---- 5.78 278 12.73
04/23 03:00 ---- 5.77 273 12.65
04/23 04:00 ---- 5.77 273 12.65
04/23 05:00 ---- 5.80 286 12.65
04/23 06:00 ---- 5.77 273 12.65
04/23 07:00 ---- 5.79 282 ----
04/23 08:00 ---- 5.80 286 12.65
04/23 09:00 ---- 5.79 282 12.73
04/23 10:00 ---- 5.76 269 13.37
04/23 11:00 ---- 5.73 257 13.68
04/23 12:00 ---- 5.73 257 13.68
04/23 13:00 ---- 5.75 265 13.76
04/23 14:00 ---- 5.74 261 13.29
04/23 15:00 ---- 5.74 261 13.29
04/23 16:00 ---- 5.75 265 13.13
04/23 17:00 ---- 5.74 261 13.05
04/23 18:00 ---- 5.72 252 12.97
04/23 19:00 ---- 5.68 236 12.89
04/23 20:00 ---- 5.65 225 12.81
04/23 21:00 ---- 5.67 233 12.81
04/23 22:00 ---- 5.64 221 12.81
04/23 23:00 ---- 5.68 236 12.73
Data processed at Fri 24Apr2026 04:47 GMT

NOTICE: If you are parsing this page

Please convert to using our Data API. Starting early 2026 we will be migrating to: https://water.usace.army.mil with modern pages rendered in JavaScript. When this migration completes you will no longer be able to scrape this page! CWMSDataAPI (CDA)

Timeseries IDs (TSIDs)

TSIDs used from left to right in the data table
GUTH.Precip-Inc.Total.1Hour.1Hour.Ccp-Rev
GUTH.Stage.Inst.1Hour.0.Ccp-Rev
GUTH.Flow.Inst.1Hour.0.Ccp-Rev
GUTH.Volt-Battery Load.Inst.1Hour.0.Ccp-Rev

                            

All information presented herein is the property of the government of the United States of America and may be revised or deleted at any time without prior notice. Dissemination of this information without the expressed written consent of the Public Affairs Office, Tulsa District U.S. Army Corps of Engineers is strictly prohibited. These data are gathered electronically and, as presented, have NOT undergone any form of quality control. These data are NOT guaranteed to be valid or correct.